createdAt,value
2022-12-10T00:01:27.232Z,2.28
2022-12-10T00:03:54.709Z,1.77
2022-12-10T00:06:25.054Z,1.85
2022-12-10T00:08:52.839Z,1.30
2022-12-10T00:11:21.588Z,1.90
2022-12-10T00:13:49.932Z,2.00
2022-12-10T00:16:18.735Z,2.10
2022-12-10T00:18:46.371Z,2.00
2022-12-10T00:21:17.437Z,1.90
2022-12-10T00:23:44.922Z,2.13
2022-12-10T00:26:23.879Z,1.90
2022-12-10T00:28:52.154Z,1.88
2022-12-10T00:31:20.613Z,1.98
2022-12-10T00:33:48.645Z,2.10
2022-12-10T00:36:24.835Z,1.80
2022-12-10T00:38:52.572Z,1.65
2022-12-10T00:41:20.060Z,1.60
2022-12-10T00:43:47.385Z,2.00
2022-12-10T00:46:16.107Z,2.13
2022-12-10T00:48:44.416Z,1.75
2022-12-10T00:51:15.826Z,1.77
2022-12-10T00:53:44.605Z,2.38
2022-12-10T00:56:13.564Z,2.10
2022-12-10T00:58:40.680Z,2.08
2022-12-10T01:01:24.084Z,1.80
2022-12-10T01:03:53.745Z,2.10
2022-12-10T01:06:29.949Z,2.60
2022-12-10T01:08:59.129Z,2.47
2022-12-10T01:11:29.765Z,2.60
2022-12-10T01:13:57.882Z,2.10
2022-12-10T01:16:25.791Z,2.50
2022-12-10T01:19:00.422Z,2.22
2022-12-10T01:21:29.745Z,2.30
2022-12-10T01:23:58.251Z,2.10
2022-12-10T01:26:29.376Z,2.17
2022-12-10T01:29:01.033Z,2.63
2022-12-10T01:31:34.411Z,2.63
2022-12-10T01:34:03.265Z,2.25
2022-12-10T01:36:33.419Z,2.85
2022-12-10T01:39:01.870Z,1.85
2022-12-10T01:41:38.976Z,2.20
2022-12-10T01:44:10.132Z,1.90
2022-12-10T01:46:45.875Z,1.80
2022-12-10T01:49:20.640Z,1.95
2022-12-10T01:51:54.879Z,2.00
2022-12-10T01:54:29.144Z,1.70
2022-12-10T01:57:05.605Z,1.88
2022-12-10T01:59:34.668Z,2.00
2022-12-10T02:02:08.059Z,1.80
2022-12-10T02:04:56.949Z,1.95
2022-12-10T02:08:08.364Z,2.05
2022-12-10T02:11:12.402Z,1.90
2022-12-10T02:13:39.570Z,2.08
2022-12-10T02:16:16.295Z,2.00
2022-12-10T02:19:12.350Z,1.80
2022-12-10T02:21:43.449Z,1.58
2022-12-10T02:24:16.889Z,2.67
2022-12-10T02:27:30.256Z,2.08
2022-12-10T02:29:59.113Z,2.00
2022-12-10T02:32:36.171Z,2.22
2022-12-10T02:35:08.560Z,2.05
2022-12-10T02:37:45.332Z,2.00
2022-12-10T02:40:21.174Z,1.70
2022-12-10T02:42:52.547Z,2.20
2022-12-10T02:45:27.474Z,2.47
2022-12-10T02:48:00.468Z,2.17
2022-12-10T02:50:28.178Z,2.05
2022-12-10T02:52:55.409Z,2.60
2022-12-10T02:55:26.220Z,2.40
2022-12-10T02:57:59.157Z,2.35
2022-12-10T03:00:34.671Z,2.13
2022-12-10T03:03:20.490Z,2.10
2022-12-10T03:06:12.807Z,2.30
2022-12-10T03:09:07.269Z,2.00
2022-12-10T03:11:35.642Z,2.13
2022-12-10T03:14:12.107Z,2.22
2022-12-10T03:16:46.623Z,2.70
2022-12-10T03:19:22.308Z,1.80
2022-12-10T03:21:52.823Z,1.90
2022-12-10T03:24:21.485Z,1.67
2022-12-10T03:26:54.315Z,2.30
2022-12-10T03:29:36.266Z,2.05
2022-12-10T03:32:07.355Z,2.08
2022-12-10T03:34:36.181Z,2.30
2022-12-10T03:37:07.613Z,2.00
2022-12-10T03:39:39.052Z,1.98
2022-12-10T03:42:07.694Z,1.83
2022-12-10T03:44:38.049Z,1.90
2022-12-10T03:47:11.082Z,1.47
2022-12-10T03:49:38.295Z,1.63
2022-12-10T03:52:05.643Z,1.80
2022-12-10T03:54:33.073Z,2.13
2022-12-10T03:57:00.262Z,1.98
2022-12-10T03:59:31.030Z,1.90
2022-12-10T04:02:03.607Z,1.80
2022-12-10T04:04:34.154Z,2.08
2022-12-10T04:07:01.860Z,2.10
2022-12-10T04:09:29.233Z,2.03
2022-12-10T04:11:58.268Z,1.98
2022-12-10T04:14:45.602Z,2.17
2022-12-10T04:17:13.357Z,1.90
2022-12-10T04:19:47.153Z,1.80
2022-12-10T04:22:33.573Z,1.92
2022-12-10T04:25:19.746Z,1.90
2022-12-10T04:27:46.903Z,1.50
2022-12-10T04:30:14.365Z,1.77
2022-12-10T04:32:41.783Z,2.20
2022-12-10T04:35:09.514Z,2.42
2022-12-10T04:37:36.928Z,2.05
2022-12-10T04:40:04.737Z,1.92
2022-12-10T04:42:31.847Z,2.10
2022-12-10T04:44:59.079Z,1.98
2022-12-10T04:47:26.197Z,1.98
2022-12-10T04:49:53.307Z,2.05
2022-12-10T04:52:20.468Z,1.63
2022-12-10T04:54:47.577Z,1.92
2022-12-10T04:57:15.476Z,1.80
2022-12-10T04:59:42.512Z,1.95
2022-12-10T05:02:09.598Z,1.80
2022-12-10T05:04:37.272Z,1.95
2022-12-10T05:07:04.438Z,1.88
2022-12-10T05:09:31.634Z,1.52
2022-12-10T05:11:58.926Z,2.20
2022-12-10T05:14:26.268Z,2.05
2022-12-10T05:16:57.685Z,1.90
2022-12-10T05:19:27.357Z,1.80
2022-12-10T05:22:12.926Z,2.20
2022-12-10T05:24:40.255Z,2.15
2022-12-10T05:27:07.406Z,2.08
2022-12-10T05:29:35.383Z,1.98
2022-12-10T05:32:03.934Z,1.85
2022-12-10T05:34:31.225Z,1.90
2022-12-10T05:36:58.351Z,2.55
2022-12-10T05:39:25.571Z,2.30
2022-12-10T05:41:53.065Z,1.95
2022-12-10T05:44:20.472Z,2.60
2022-12-10T05:46:47.647Z,2.15
2022-12-10T05:49:14.736Z,2.13
2022-12-10T05:51:41.966Z,2.10
2022-12-10T05:54:11.087Z,2.13
2022-12-10T05:56:39.141Z,2.35
2022-12-10T05:59:14.614Z,1.95
2022-12-10T06:01:43.956Z,2.40
2022-12-10T06:04:14.225Z,2.13
2022-12-10T06:06:41.996Z,1.90
2022-12-10T06:09:13.300Z,2.10
2022-12-10T06:14:07.692Z,2.30
2022-12-10T06:16:34.903Z,2.03
2022-12-10T06:19:02.011Z,1.70
2022-12-10T06:21:29.249Z,1.95
2022-12-10T06:23:56.487Z,1.70
2022-12-10T06:26:26.383Z,1.70
2022-12-10T06:28:54.724Z,2.00
2022-12-10T06:31:22.944Z,1.85
2022-12-10T06:33:50.519Z,1.90
2022-12-10T06:36:18.671Z,1.98
2022-12-10T06:38:46.841Z,2.15
2022-12-10T06:41:15.891Z,1.60
2022-12-10T06:43:43.102Z,1.67
2022-12-10T06:46:15.682Z,1.92
2022-12-10T06:48:43.596Z,2.17
2022-12-10T06:51:12.008Z,1.83
2022-12-10T06:53:40.018Z,1.92
2022-12-10T06:56:08.185Z,2.00
2022-12-10T06:58:36.795Z,1.85
2022-12-10T07:01:06.389Z,1.83
2022-12-10T07:03:33.710Z,1.90
2022-12-10T07:06:02.565Z,1.80
2022-12-10T07:08:30.117Z,1.98
2022-12-10T07:10:57.990Z,1.90
2022-12-10T07:13:30.348Z,2.00
2022-12-10T07:15:58.088Z,1.60
2022-12-10T07:18:25.829Z,1.70
2022-12-10T07:20:53.357Z,2.20
2022-12-10T07:23:21.008Z,1.65
2022-12-10T07:25:51.741Z,1.98
2022-12-10T07:28:19.032Z,1.88
2022-12-10T07:30:46.329Z,1.77
2022-12-10T07:33:13.562Z,1.83
2022-12-10T07:35:47.374Z,2.13
2022-12-10T07:38:19.322Z,2.03
2022-12-10T07:40:46.573Z,2.00
2022-12-10T07:43:13.822Z,2.15
2022-12-10T07:45:44.899Z,1.73
2022-12-10T07:48:12.943Z,2.20
2022-12-10T07:50:40.385Z,2.40
2022-12-10T07:53:10.655Z,2.13
2022-12-10T07:55:38.799Z,1.80
2022-12-10T07:58:12.106Z,2.10
2022-12-10T08:00:40.877Z,1.92
2022-12-10T08:03:08.407Z,2.17
2022-12-10T08:05:35.823Z,1.60
2022-12-10T08:08:08.171Z,2.08
2022-12-10T08:10:40.214Z,1.90
2022-12-10T08:13:07.760Z,2.10
2022-12-10T08:15:39.007Z,5.45
2022-12-10T08:20:33.458Z,2.53
2022-12-10T08:23:05.292Z,2.42
2022-12-10T08:25:36.052Z,2.33
2022-12-10T08:28:11.616Z,2.30
2022-12-10T08:30:38.935Z,4.60
2022-12-10T08:33:06.759Z,2.47
2022-12-10T08:35:34.461Z,3.65
2022-12-10T08:38:01.728Z,3.70
2022-12-10T08:40:28.807Z,3.60
2022-12-10T08:42:57.494Z,3.03
2022-12-10T08:45:25.138Z,2.83
2022-12-10T08:47:53.099Z,2.65
2022-12-10T08:50:27.920Z,2.90
2022-12-10T08:52:55.101Z,3.17
2022-12-10T08:55:22.465Z,2.70
2022-12-10T08:57:49.853Z,2.80
2022-12-10T09:00:17.871Z,3.00
2022-12-10T09:02:44.968Z,4.35
2022-12-10T09:05:12.251Z,3.67
2022-12-10T09:07:39.642Z,3.67
2022-12-10T09:10:07.586Z,2.70
2022-12-10T09:12:36.078Z,2.65
2022-12-10T09:15:03.517Z,2.67
2022-12-10T09:17:30.662Z,2.42
2022-12-10T09:19:57.991Z,3.22
2022-12-10T09:22:25.951Z,3.92
2022-12-10T09:24:53.725Z,4.32
2022-12-10T09:27:22.139Z,3.97
2022-12-10T09:29:49.288Z,3.30
2022-12-10T09:32:16.515Z,3.55
2022-12-10T09:34:43.758Z,3.80
2022-12-10T09:37:10.932Z,3.65
2022-12-10T09:39:38.440Z,4.55
2022-12-10T09:42:08.482Z,3.97
2022-12-10T09:45:10.816Z,4.85
2022-12-10T09:48:06.339Z,4.15
2022-12-10T09:50:53.652Z,3.72
2022-12-10T09:53:22.915Z,3.50
2022-12-10T09:55:50.850Z,3.08
2022-12-10T09:58:30.224Z,3.47
2022-12-10T10:01:02.768Z,3.03
2022-12-10T10:03:37.630Z,3.03
2022-12-10T10:06:10.932Z,3.00
2022-12-10T10:08:42.338Z,2.92
2022-12-10T10:11:36.276Z,3.30
2022-12-10T10:14:11.751Z,3.15
2022-12-10T10:16:53.525Z,3.80
2022-12-10T10:19:31.617Z,4.07
2022-12-10T10:21:59.799Z,3.88
2022-12-10T10:24:48.131Z,3.83
2022-12-10T10:27:17.608Z,3.20
2022-12-10T10:29:45.998Z,3.45
2022-12-10T10:32:25.457Z,3.40
2022-12-10T10:34:59.682Z,6.30
2022-12-10T10:37:30.963Z,5.60
2022-12-10T10:42:34.281Z,3.25
2022-12-10T10:45:02.981Z,4.82
2022-12-10T10:47:34.964Z,3.42
2022-12-10T10:50:07.783Z,4.15
2022-12-10T10:52:39.599Z,4.85
2022-12-10T10:55:27.325Z,5.10
2022-12-10T10:57:54.702Z,4.82
2022-12-10T11:00:25.935Z,4.50
2022-12-10T11:02:53.888Z,4.82
2022-12-10T11:05:32.089Z,4.65
2022-12-10T11:08:19.294Z,3.83
2022-12-10T11:11:01.955Z,3.90
2022-12-10T11:13:31.612Z,3.95
2022-12-10T11:16:18.491Z,3.65
2022-12-10T11:19:03.649Z,3.60
2022-12-10T11:21:33.085Z,3.67
2022-12-10T11:24:01.316Z,3.33
2022-12-10T11:26:41.714Z,4.20
2022-12-10T11:29:17.960Z,4.03
2022-12-10T11:32:03.413Z,3.70
2022-12-10T11:34:56.050Z,4.50
2022-12-10T11:37:37.872Z,4.05
2022-12-10T11:40:20.329Z,3.63
2022-12-10T11:43:15.954Z,3.63
2022-12-10T11:45:50.227Z,3.78
2022-12-10T11:48:39.065Z,3.42
2022-12-10T11:51:28.686Z,3.28
2022-12-10T11:54:08.459Z,2.97
2022-12-10T11:56:48.300Z,3.20
2022-12-10T11:59:41.127Z,3.60
2022-12-10T12:02:53.041Z,4.20
2022-12-10T12:05:55.620Z,3.67
2022-12-10T12:08:34.930Z,3.28
2022-12-10T12:11:16.749Z,3.28
2022-12-10T12:14:10.269Z,4.18
2022-12-10T12:16:45.634Z,4.30
2022-12-10T12:19:18.884Z,4.50
2022-12-10T12:21:51.515Z,4.20
2022-12-10T12:24:26.588Z,5.32
2022-12-10T12:27:17.110Z,16.08
2022-12-10T12:30:01.964Z,12.10
2022-12-10T12:32:36.695Z,11.48
2022-12-10T12:35:18.735Z,12.45
2022-12-10T12:38:01.041Z,20.35
2022-12-10T12:40:37.440Z,30.17
2022-12-10T12:43:24.644Z,47.70
2022-12-10T12:45:55.174Z,11.52
2022-12-10T12:48:25.041Z,4.82
2022-12-10T12:50:57.051Z,4.32
2022-12-10T12:53:26.214Z,4.13
2022-12-10T12:56:19.488Z,4.10
2022-12-10T12:59:03.977Z,3.80
2022-12-10T13:01:45.066Z,3.60
2022-12-10T13:04:13.100Z,3.15
2022-12-10T13:06:45.465Z,2.78
2022-12-10T13:09:28.492Z,3.08
2022-12-10T13:12:04.574Z,2.70
2022-12-10T13:14:37.828Z,2.60
2022-12-10T13:17:28.770Z,2.88
2022-12-10T13:20:27.998Z,2.53
2022-12-10T13:23:27.391Z,2.75
2022-12-10T13:25:56.021Z,2.72
2022-12-10T13:28:26.084Z,2.75
2022-12-10T13:31:10.401Z,2.80
2022-12-10T13:34:00.815Z,2.58
2022-12-10T13:36:49.981Z,3.38
2022-12-10T13:39:47.551Z,3.30
2022-12-10T13:42:33.222Z,3.55
2022-12-10T13:45:25.687Z,3.90
2022-12-10T13:47:56.638Z,3.65
2022-12-10T13:50:40.258Z,4.13
2022-12-10T13:53:16.729Z,5.45
2022-12-10T13:56:08.712Z,6.57
2022-12-10T13:58:57.714Z,5.95
2022-12-10T14:01:39.135Z,7.90
2022-12-10T14:06:44.514Z,5.03
2022-12-10T14:09:28.572Z,4.22
2022-12-10T14:12:05.465Z,3.95
2022-12-10T14:14:40.321Z,4.22
2022-12-10T14:17:22.213Z,3.85
2022-12-10T14:19:54.274Z,4.75
2022-12-10T14:22:36.486Z,5.18
2022-12-10T14:25:08.710Z,5.05
2022-12-10T14:27:37.221Z,4.28
2022-12-10T14:30:07.804Z,3.90
2022-12-10T14:32:39.632Z,3.38
2022-12-10T14:35:13.420Z,4.53
2022-12-10T14:37:43.710Z,3.97
2022-12-10T14:40:18.764Z,4.00
2022-12-10T14:42:45.901Z,4.03
2022-12-10T14:45:16.183Z,4.13
2022-12-10T14:47:48.643Z,3.75
2022-12-10T14:50:17.893Z,3.92
2022-12-10T14:52:53.188Z,3.03
2022-12-10T14:55:25.214Z,3.47
2022-12-10T14:58:05.430Z,3.70
2022-12-10T15:00:33.315Z,3.40
2022-12-10T15:03:10.266Z,3.20
2022-12-10T15:05:38.322Z,3.35
2022-12-10T15:08:15.562Z,2.97
2022-12-10T15:10:51.420Z,3.65
2022-12-10T15:13:41.567Z,4.43
2022-12-10T15:16:21.553Z,3.75
2022-12-10T15:18:49.084Z,3.78
2022-12-10T15:21:21.094Z,5.63
2022-12-10T15:23:48.443Z,5.47
2022-12-10T15:26:21.366Z,4.50
2022-12-10T15:28:50.592Z,4.15
2022-12-10T15:31:32.137Z,4.28
2022-12-10T15:34:08.597Z,3.88
2022-12-10T15:36:46.018Z,4.28
2022-12-10T15:39:23.004Z,4.28
2022-12-10T15:41:52.607Z,3.53
2022-12-10T15:44:19.546Z,4.75
2022-12-10T15:47:04.238Z,3.65
2022-12-10T15:49:32.100Z,3.30
2022-12-10T15:51:59.374Z,3.72
2022-12-10T15:54:39.479Z,4.40
2022-12-10T15:57:26.776Z,3.78
2022-12-10T15:59:56.845Z,3.72
2022-12-10T16:02:29.841Z,3.90
2022-12-10T16:04:58.617Z,4.80
2022-12-10T16:07:25.689Z,4.63
2022-12-10T16:09:52.683Z,3.75
2022-12-10T16:12:20.796Z,5.35
2022-12-10T16:14:57.558Z,6.07
2022-12-10T16:17:24.902Z,4.63
2022-12-10T16:19:52.145Z,3.20
2022-12-10T16:22:19.136Z,3.55
2022-12-10T16:24:46.174Z,3.15
2022-12-10T16:27:16.977Z,3.33
2022-12-10T16:29:44.946Z,3.08
2022-12-10T16:32:12.771Z,2.90
2022-12-10T16:34:41.562Z,3.40
2022-12-10T16:37:09.953Z,2.92
2022-12-10T16:39:37.387Z,3.15
2022-12-10T16:42:04.588Z,2.72
2022-12-10T16:44:31.596Z,3.10
2022-12-10T16:46:59.653Z,2.90
2022-12-10T16:49:26.707Z,3.03
2022-12-10T16:51:53.852Z,3.53
2022-12-10T16:54:21.060Z,2.90
2022-12-10T16:56:48.225Z,2.70
2022-12-10T16:59:15.236Z,2.72
2022-12-10T17:01:42.344Z,2.42
2022-12-10T17:04:10.867Z,2.95
2022-12-10T17:06:37.887Z,2.85
2022-12-10T17:09:05.927Z,2.92
2022-12-10T17:11:45.736Z,2.53
2022-12-10T17:14:26.912Z,2.60
2022-12-10T17:16:56.897Z,2.75
2022-12-10T17:19:25.114Z,3.20
2022-12-10T17:21:52.668Z,3.03
2022-12-10T17:24:19.728Z,2.90
2022-12-10T17:26:48.325Z,2.67
2022-12-10T17:29:23.459Z,2.75
2022-12-10T17:31:50.604Z,2.95
2022-12-10T17:34:18.119Z,3.03
2022-12-10T17:36:45.362Z,2.83
2022-12-10T17:39:22.188Z,3.33
2022-12-10T17:41:50.353Z,3.28
2022-12-10T17:44:17.662Z,3.30
2022-12-10T17:46:44.664Z,5.75
2022-12-10T17:49:15.633Z,5.40
2022-12-10T17:51:43.757Z,5.07
2022-12-10T17:54:10.765Z,5.93
2022-12-10T17:56:37.964Z,4.40
2022-12-10T17:59:05.939Z,3.15
2022-12-10T18:01:33.133Z,4.55
2022-12-10T18:04:00.309Z,8.38
2022-12-10T18:06:30.638Z,10.18
2022-12-10T18:09:00.852Z,5.00
2022-12-10T18:11:34.169Z,5.13
2022-12-10T18:14:01.864Z,5.35
2022-12-10T18:16:36.398Z,5.45
2022-12-10T18:19:08.419Z,7.47
2022-12-10T18:21:35.409Z,7.97
2022-12-10T18:24:02.523Z,7.53
2022-12-10T18:26:29.997Z,7.85
2022-12-10T18:28:59.647Z,5.80
2022-12-10T18:31:29.865Z,4.18
2022-12-10T18:34:00.114Z,4.15
2022-12-10T18:36:37.197Z,6.75
2022-12-10T18:39:14.425Z,5.00
2022-12-10T18:41:41.657Z,3.90
2022-12-10T18:44:08.698Z,4.43
2022-12-10T18:46:38.329Z,4.07
2022-12-10T18:49:06.468Z,3.85
2022-12-10T18:51:33.526Z,4.10
2022-12-10T18:54:00.679Z,4.00
2022-12-10T18:56:30.656Z,4.20
2022-12-10T18:58:57.877Z,4.55
2022-12-10T19:01:25.500Z,4.07
2022-12-10T19:03:54.173Z,4.65
2022-12-10T19:06:26.717Z,5.00
2022-12-10T19:09:17.115Z,4.88
2022-12-10T19:11:43.283Z,4.85
2022-12-10T19:14:10.633Z,6.05
2022-12-10T19:16:37.661Z,5.03
2022-12-10T19:19:06.486Z,5.50
2022-12-10T19:21:34.385Z,5.00
2022-12-10T19:24:01.421Z,3.85
2022-12-10T19:26:40.223Z,4.20
2022-12-10T19:29:25.574Z,4.13
2022-12-10T19:31:52.891Z,3.38
2022-12-10T19:34:21.293Z,2.95
2022-12-10T19:36:50.066Z,2.95
2022-12-10T19:39:24.775Z,3.80
2022-12-10T19:41:53.037Z,2.90
2022-12-10T19:44:20.550Z,4.03
2022-12-10T19:46:47.739Z,4.60
2022-12-10T19:49:16.357Z,4.15
2022-12-10T19:51:44.009Z,7.25
2022-12-10T19:54:11.425Z,3.35
2022-12-10T19:56:38.706Z,3.75
2022-12-10T19:59:15.714Z,4.22
2022-12-10T20:01:43.802Z,4.35
2022-12-10T20:04:11.516Z,4.20
2022-12-10T20:06:41.229Z,4.80
2022-12-10T20:09:17.899Z,4.03
2022-12-10T20:11:45.144Z,4.03
2022-12-10T20:14:12.301Z,3.13
2022-12-10T20:16:41.577Z,3.78
2022-12-10T20:19:12.713Z,5.28
2022-12-10T20:21:39.718Z,6.60
2022-12-10T20:24:07.682Z,4.47
2022-12-10T20:26:37.758Z,3.08
2022-12-10T20:29:17.650Z,3.58
2022-12-10T20:31:46.580Z,4.10
2022-12-10T20:34:14.642Z,3.85
2022-12-10T20:36:42.518Z,5.05
2022-12-10T20:39:36.536Z,5.43
2022-12-10T20:42:04.881Z,4.05
2022-12-10T20:44:31.943Z,3.20
2022-12-10T20:46:59.140Z,3.83
2022-12-10T20:49:27.414Z,3.38
2022-12-10T20:51:54.936Z,3.50
2022-12-10T20:54:22.468Z,3.15
2022-12-10T20:56:49.810Z,3.97
2022-12-10T20:59:17.469Z,2.97
2022-12-10T21:01:44.819Z,2.97
2022-12-10T21:04:12.579Z,3.17
2022-12-10T21:06:40.899Z,2.85
2022-12-10T21:09:07.947Z,3.00
2022-12-10T21:11:35.486Z,3.25
2022-12-10T21:14:02.789Z,3.05
2022-12-10T21:16:31.034Z,3.10
2022-12-10T21:18:58.252Z,2.88
2022-12-10T21:21:28.084Z,3.00
2022-12-10T21:23:56.186Z,3.22
2022-12-10T21:26:23.690Z,2.88
2022-12-10T21:28:50.966Z,2.65
2022-12-10T21:31:25.058Z,2.85
2022-12-10T21:33:52.775Z,2.78
2022-12-10T21:36:22.444Z,2.80
2022-12-10T21:38:50.196Z,2.38
2022-12-10T21:41:40.243Z,2.58
2022-12-10T21:44:07.870Z,2.22
2022-12-10T21:46:35.124Z,2.60
2022-12-10T21:49:02.521Z,2.90
2022-12-10T21:51:30.999Z,2.85
2022-12-10T21:54:00.788Z,2.80
2022-12-10T21:56:28.716Z,2.72
2022-12-10T21:58:56.401Z,3.10
2022-12-10T22:01:23.591Z,3.42
2022-12-10T22:03:50.839Z,2.92
2022-12-10T22:06:19.960Z,2.85
2022-12-10T22:08:46.999Z,3.10
2022-12-10T22:11:14.938Z,3.35
2022-12-10T22:13:42.198Z,3.17
2022-12-10T22:16:10.542Z,3.10
2022-12-10T22:18:37.955Z,2.50
2022-12-10T22:21:05.446Z,2.80
2022-12-10T22:23:32.562Z,2.42
2022-12-10T22:25:59.653Z,2.83
2022-12-10T22:28:28.344Z,2.33
2022-12-10T22:30:56.426Z,2.50
2022-12-10T22:33:23.737Z,2.60
2022-12-10T22:35:50.932Z,2.13
2022-12-10T22:38:18.576Z,2.38
2022-12-10T22:40:45.697Z,2.25
2022-12-10T22:43:41.567Z,2.53
2022-12-10T22:46:00.564Z,2.60
2022-12-10T22:48:27.666Z,2.67
2022-12-10T22:51:05.255Z,2.83
2022-12-10T22:53:34.080Z,2.38
2022-12-10T22:56:06.067Z,2.90
2022-12-10T22:58:33.526Z,2.60
2022-12-10T23:01:00.832Z,2.17
2022-12-10T23:03:29.159Z,2.50
2022-12-10T23:05:56.428Z,2.22
2022-12-10T23:08:24.187Z,2.40
2022-12-10T23:10:51.938Z,2.08
2022-12-10T23:13:22.539Z,2.20
2022-12-10T23:15:52.224Z,1.77
2022-12-10T23:18:20.446Z,2.25
2022-12-10T23:20:50.222Z,2.72
2022-12-10T23:23:19.432Z,1.90
2022-12-10T23:25:47.252Z,2.30
2022-12-10T23:28:14.669Z,1.90
2022-12-10T23:30:42.078Z,2.33
2022-12-10T23:33:09.439Z,2.15
2022-12-10T23:35:42.698Z,2.10
2022-12-10T23:38:10.203Z,2.17
2022-12-10T23:40:40.961Z,2.10
2022-12-10T23:43:08.008Z,2.42
2022-12-10T23:45:35.077Z,2.17
2022-12-10T23:48:02.323Z,2.13
2022-12-10T23:50:33.164Z,1.77
2022-12-10T23:53:01.231Z,3.22
2022-12-10T23:55:28.729Z,2.70
2022-12-10T23:57:55.814Z,2.70
